sensor_id;sensor_type;location;lat;lon;timestamp;temperature;humidity
5346;DHT22;2695;49.444;11.054;2022-10-10T00:01:18;11.80;99.90
5346;DHT22;2695;49.444;11.054;2022-10-10T00:03:46;11.70;99.90
5346;DHT22;2695;49.444;11.054;2022-10-10T00:06:15;11.70;99.90
5346;DHT22;2695;49.444;11.054;2022-10-10T00:08:43;11.60;99.90
5346;DHT22;2695;49.444;11.054;2022-10-10T00:11:13;11.60;99.90
5346;DHT22;2695;49.444;11.054;2022-10-10T00:13:43;11.70;99.90
5346;DHT22;2695;49.444;11.054;2022-10-10T00:16:12;11.50;99.90
5346;DHT22;2695;49.444;11.054;2022-10-10T00:18:41;11.60;99.90
5346;DHT22;2695;49.444;11.054;2022-10-10T00:21:10;11.50;99.90
5346;DHT22;2695;49.444;11.054;2022-10-10T00:23:38;11.50;99.90
5346;DHT22;2695;49.444;11.054;2022-10-10T00:26:06;11.50;99.90
5346;DHT22;2695;49.444;11.054;2022-10-10T00:28:36;11.50;99.90
5346;DHT22;2695;49.444;11.054;2022-10-10T00:31:07;11.50;99.90
5346;DHT22;2695;49.444;11.054;2022-10-10T00:33:36;11.50;99.90
5346;DHT22;2695;49.444;11.054;2022-10-10T00:36:05;11.50;99.90
5346;DHT22;2695;49.444;11.054;2022-10-10T00:38:34;11.50;99.90
5346;DHT22;2695;49.444;11.054;2022-10-10T00:41:02;11.60;99.90
5346;DHT22;2695;49.444;11.054;2022-10-10T00:43:31;11.50;99.90
5346;DHT22;2695;49.444;11.054;2022-10-10T00:45:59;11.50;99.90
5346;DHT22;2695;49.444;11.054;2022-10-10T00:48:31;11.50;99.90
5346;DHT22;2695;49.444;11.054;2022-10-10T00:51:05;11.50;99.90
5346;DHT22;2695;49.444;11.054;2022-10-10T00:53:38;11.40;99.90
5346;DHT22;2695;49.444;11.054;2022-10-10T00:56:13;11.50;99.90
5346;DHT22;2695;49.444;11.054;2022-10-10T00:58:48;11.50;99.90
5346;DHT22;2695;49.444;11.054;2022-10-10T01:01:21;11.50;99.90
5346;DHT22;2695;49.444;11.054;2022-10-10T01:03:52;11.50;99.90
5346;DHT22;2695;49.444;11.054;2022-10-10T01:06:23;11.50;99.90
5346;DHT22;2695;49.444;11.054;2022-10-10T01:08:52;11.60;99.90
5346;DHT22;2695;49.444;11.054;2022-10-10T01:11:41;11.60;99.90
5346;DHT22;2695;49.444;11.054;2022-10-10T01:14:20;11.60;99.90
5346;DHT22;2695;49.444;11.054;2022-10-10T01:16:58;11.60;99.90
5346;DHT22;2695;49.444;11.054;2022-10-10T01:22:40;11.60;99.90
5346;DHT22;2695;49.444;11.054;2022-10-10T01:25:21;11.60;99.90
5346;DHT22;2695;49.444;11.054;2022-10-10T01:27:53;11.60;99.90
5346;DHT22;2695;49.444;11.054;2022-10-10T01:30:28;11.60;99.90
5346;DHT22;2695;49.444;11.054;2022-10-10T01:33:03;11.50;99.90
5346;DHT22;2695;49.444;11.054;2022-10-10T01:35:41;11.50;99.90
5346;DHT22;2695;49.444;11.054;2022-10-10T01:38:21;11.50;99.90
5346;DHT22;2695;49.444;11.054;2022-10-10T01:40:55;11.50;99.90
5346;DHT22;2695;49.444;11.054;2022-10-10T01:43:29;11.50;99.90
5346;DHT22;2695;49.444;11.054;2022-10-10T01:46:08;11.50;99.90
5346;DHT22;2695;49.444;11.054;2022-10-10T01:48:37;11.40;99.90
5346;DHT22;2695;49.444;11.054;2022-10-10T01:51:18;11.40;99.90
5346;DHT22;2695;49.444;11.054;2022-10-10T01:53:56;11.40;99.90
5346;DHT22;2695;49.444;11.054;2022-10-10T01:56:35;11.50;99.90
5346;DHT22;2695;49.444;11.054;2022-10-10T01:59:23;11.40;99.90
5346;DHT22;2695;49.444;11.054;2022-10-10T02:02:04;11.40;99.90
5346;DHT22;2695;49.444;11.054;2022-10-10T02:04:40;11.40;99.90
5346;DHT22;2695;49.444;11.054;2022-10-10T02:07:12;11.30;99.90
5346;DHT22;2695;49.444;11.054;2022-10-10T02:09:44;11.30;99.90
5346;DHT22;2695;49.444;11.054;2022-10-10T02:12:15;11.40;99.90
5346;DHT22;2695;49.444;11.054;2022-10-10T02:14:48;11.40;99.90
5346;DHT22;2695;49.444;11.054;2022-10-10T02:17:20;11.40;99.90
5346;DHT22;2695;49.444;11.054;2022-10-10T02:19:56;11.30;99.90
5346;DHT22;2695;49.444;11.054;2022-10-10T02:22:26;11.30;99.90
5346;DHT22;2695;49.444;11.054;2022-10-10T02:24:56;11.40;99.90
5346;DHT22;2695;49.444;11.054;2022-10-10T02:27:31;11.30;99.90
5346;DHT22;2695;49.444;11.054;2022-10-10T02:30:07;11.30;99.90
5346;DHT22;2695;49.444;11.054;2022-10-10T02:32:41;11.30;99.90
5346;DHT22;2695;49.444;11.054;2022-10-10T02:35:14;11.20;99.90
5346;DHT22;2695;49.444;11.054;2022-10-10T02:37:44;11.10;99.90
5346;DHT22;2695;49.444;11.054;2022-10-10T02:40:18;11.20;99.90
5346;DHT22;2695;49.444;11.054;2022-10-10T02:42:51;10.90;99.90
5346;DHT22;2695;49.444;11.054;2022-10-10T02:45:23;11.00;99.90
5346;DHT22;2695;49.444;11.054;2022-10-10T02:47:53;10.90;99.90
5346;DHT22;2695;49.444;11.054;2022-10-10T02:50:22;11.00;99.90
5346;DHT22;2695;49.444;11.054;2022-10-10T02:52:53;10.90;99.90
5346;DHT22;2695;49.444;11.054;2022-10-10T02:55:22;11.00;99.90
5346;DHT22;2695;49.444;11.054;2022-10-10T02:57:50;11.00;99.90
5346;DHT22;2695;49.444;11.054;2022-10-10T03:00:19;11.00;99.90
5346;DHT22;2695;49.444;11.054;2022-10-10T03:02:47;10.90;99.90
5346;DHT22;2695;49.444;11.054;2022-10-10T03:05:21;11.00;99.90
5346;DHT22;2695;49.444;11.054;2022-10-10T03:08:08;10.80;99.90
5346;DHT22;2695;49.444;11.054;2022-10-10T03:10:37;10.90;99.90
5346;DHT22;2695;49.444;11.054;2022-10-10T03:13:06;10.90;99.90
5346;DHT22;2695;49.444;11.054;2022-10-10T03:15:34;10.90;99.90
5346;DHT22;2695;49.444;11.054;2022-10-10T03:18:02;10.90;99.90
5346;DHT22;2695;49.444;11.054;2022-10-10T03:20:31;10.90;99.90
5346;DHT22;2695;49.444;11.054;2022-10-10T03:22:59;10.80;99.90
5346;DHT22;2695;49.444;11.054;2022-10-10T03:25:27;10.90;99.90
5346;DHT22;2695;49.444;11.054;2022-10-10T03:27:55;10.90;99.90
5346;DHT22;2695;49.444;11.054;2022-10-10T03:30:23;10.90;99.90
5346;DHT22;2695;49.444;11.054;2022-10-10T03:32:51;10.90;99.90
5346;DHT22;2695;49.444;11.054;2022-10-10T03:35:19;11.00;99.90
5346;DHT22;2695;49.444;11.054;2022-10-10T03:37:49;10.90;99.90
5346;DHT22;2695;49.444;11.054;2022-10-10T03:40:17;11.00;99.90
5346;DHT22;2695;49.444;11.054;2022-10-10T03:42:47;11.00;99.90
5346;DHT22;2695;49.444;11.054;2022-10-10T03:45:15;11.10;99.90
5346;DHT22;2695;49.444;11.054;2022-10-10T03:47:44;11.10;99.90
5346;DHT22;2695;49.444;11.054;2022-10-10T03:50:12;11.20;99.90
5346;DHT22;2695;49.444;11.054;2022-10-10T03:52:40;11.10;99.90
5346;DHT22;2695;49.444;11.054;2022-10-10T03:55:09;11.10;99.90
5346;DHT22;2695;49.444;11.054;2022-10-10T03:57:37;11.10;99.90
5346;DHT22;2695;49.444;11.054;2022-10-10T04:00:06;11.10;99.90
5346;DHT22;2695;49.444;11.054;2022-10-10T04:02:35;11.20;99.90
5346;DHT22;2695;49.444;11.054;2022-10-10T04:05:04;11.20;99.90
5346;DHT22;2695;49.444;11.054;2022-10-10T04:07:32;11.20;99.90
5346;DHT22;2695;49.444;11.054;2022-10-10T04:10:00;11.20;99.90
5346;DHT22;2695;49.444;11.054;2022-10-10T04:12:29;11.10;99.90
5346;DHT22;2695;49.444;11.054;2022-10-10T04:14:57;11.10;99.90
5346;DHT22;2695;49.444;11.054;2022-10-10T04:17:26;11.10;99.90
5346;DHT22;2695;49.444;11.054;2022-10-10T04:19:54;11.10;99.90
5346;DHT22;2695;49.444;11.054;2022-10-10T04:22:22;11.10;99.90
5346;DHT22;2695;49.444;11.054;2022-10-10T04:24:50;11.00;99.90
5346;DHT22;2695;49.444;11.054;2022-10-10T04:27:18;11.00;99.90
5346;DHT22;2695;49.444;11.054;2022-10-10T04:29:48;11.00;99.90
5346;DHT22;2695;49.444;11.054;2022-10-10T04:32:16;10.90;99.90
5346;DHT22;2695;49.444;11.054;2022-10-10T04:34:44;10.90;99.90
5346;DHT22;2695;49.444;11.054;2022-10-10T04:37:12;10.90;99.90
5346;DHT22;2695;49.444;11.054;2022-10-10T04:39:41;10.90;99.90
5346;DHT22;2695;49.444;11.054;2022-10-10T04:42:13;10.90;99.90
5346;DHT22;2695;49.444;11.054;2022-10-10T04:44:41;10.80;99.90
5346;DHT22;2695;49.444;11.054;2022-10-10T04:47:11;10.80;99.90
5346;DHT22;2695;49.444;11.054;2022-10-10T04:49:39;10.70;99.90
5346;DHT22;2695;49.444;11.054;2022-10-10T04:52:08;10.60;99.90
5346;DHT22;2695;49.444;11.054;2022-10-10T04:54:36;10.60;99.90
5346;DHT22;2695;49.444;11.054;2022-10-10T04:57:04;10.60;99.90
5346;DHT22;2695;49.444;11.054;2022-10-10T04:59:32;10.60;99.90
5346;DHT22;2695;49.444;11.054;2022-10-10T05:02:03;10.50;99.90
5346;DHT22;2695;49.444;11.054;2022-10-10T05:04:33;10.60;99.90
5346;DHT22;2695;49.444;11.054;2022-10-10T05:07:01;10.60;99.90
5346;DHT22;2695;49.444;11.054;2022-10-10T05:09:29;10.60;99.90
5346;DHT22;2695;49.444;11.054;2022-10-10T05:11:59;10.60;99.90
5346;DHT22;2695;49.444;11.054;2022-10-10T05:14:27;10.60;99.90
5346;DHT22;2695;49.444;11.054;2022-10-10T05:16:55;10.50;99.90
5346;DHT22;2695;49.444;11.054;2022-10-10T05:19:24;10.50;99.90
5346;DHT22;2695;49.444;11.054;2022-10-10T05:21:53;10.50;99.90
5346;DHT22;2695;49.444;11.054;2022-10-10T05:24:22;10.50;99.90
5346;DHT22;2695;49.444;11.054;2022-10-10T05:26:51;10.50;99.90
5346;DHT22;2695;49.444;11.054;2022-10-10T05:29:22;10.50;99.90
5346;DHT22;2695;49.444;11.054;2022-10-10T05:31:51;10.50;99.90
5346;DHT22;2695;49.444;11.054;2022-10-10T05:34:20;10.60;99.90
5346;DHT22;2695;49.444;11.054;2022-10-10T05:36:49;10.60;99.90
5346;DHT22;2695;49.444;11.054;2022-10-10T05:39:19;10.60;99.90
5346;DHT22;2695;49.444;11.054;2022-10-10T05:41:47;10.70;99.90
5346;DHT22;2695;49.444;11.054;2022-10-10T05:44:16;10.80;99.90
5346;DHT22;2695;49.444;11.054;2022-10-10T05:46:44;10.90;99.90
5346;DHT22;2695;49.444;11.054;2022-10-10T05:49:13;11.00;99.90
5346;DHT22;2695;49.444;11.054;2022-10-10T05:51:41;11.10;99.90
5346;DHT22;2695;49.444;11.054;2022-10-10T05:54:10;11.20;99.90
5346;DHT22;2695;49.444;11.054;2022-10-10T05:56:40;11.30;99.90
5346;DHT22;2695;49.444;11.054;2022-10-10T05:59:09;11.30;99.90
5346;DHT22;2695;49.444;11.054;2022-10-10T06:01:38;11.30;99.90
5346;DHT22;2695;49.444;11.054;2022-10-10T06:04:06;11.30;99.90
5346;DHT22;2695;49.444;11.054;2022-10-10T06:06:34;11.30;99.90
5346;DHT22;2695;49.444;11.054;2022-10-10T06:09:02;11.30;99.90
5346;DHT22;2695;49.444;11.054;2022-10-10T06:11:31;11.30;99.90
5346;DHT22;2695;49.444;11.054;2022-10-10T06:14:00;11.30;99.90
5346;DHT22;2695;49.444;11.054;2022-10-10T06:16:29;11.40;99.90
5346;DHT22;2695;49.444;11.054;2022-10-10T06:18:58;11.40;99.90
5346;DHT22;2695;49.444;11.054;2022-10-10T06:21:26;11.40;99.90
5346;DHT22;2695;49.444;11.054;2022-10-10T06:23:54;11.40;99.90
5346;DHT22;2695;49.444;11.054;2022-10-10T06:26:23;11.50;99.90
5346;DHT22;2695;49.444;11.054;2022-10-10T06:31:28;11.50;99.90
5346;DHT22;2695;49.444;11.054;2022-10-10T06:33:56;11.50;99.90
5346;DHT22;2695;49.444;11.054;2022-10-10T06:36:25;11.50;99.90
5346;DHT22;2695;49.444;11.054;2022-10-10T06:38:53;11.50;99.90
5346;DHT22;2695;49.444;11.054;2022-10-10T06:41:22;11.50;99.90
5346;DHT22;2695;49.444;11.054;2022-10-10T06:43:50;11.50;99.90
5346;DHT22;2695;49.444;11.054;2022-10-10T06:46:18;11.60;99.90
5346;DHT22;2695;49.444;11.054;2022-10-10T06:48:47;11.70;99.90
5346;DHT22;2695;49.444;11.054;2022-10-10T06:51:16;11.80;99.90
5346;DHT22;2695;49.444;11.054;2022-10-10T06:53:45;12.10;99.90
5346;DHT22;2695;49.444;11.054;2022-10-10T06:56:14;13.10;99.90
5346;DHT22;2695;49.444;11.054;2022-10-10T06:58:53;14.50;99.90
5346;DHT22;2695;49.444;11.054;2022-10-10T07:01:22;15.80;99.90
5346;DHT22;2695;49.444;11.054;2022-10-10T07:03:52;16.10;99.90
5346;DHT22;2695;49.444;11.054;2022-10-10T07:06:20;15.90;99.90
5346;DHT22;2695;49.444;11.054;2022-10-10T07:08:49;15.90;99.90
5346;DHT22;2695;49.444;11.054;2022-10-10T07:11:17;15.30;99.90
5346;DHT22;2695;49.444;11.054;2022-10-10T07:13:45;14.70;99.90
5346;DHT22;2695;49.444;11.054;2022-10-10T07:16:15;14.70;99.90
5346;DHT22;2695;49.444;11.054;2022-10-10T07:18:43;14.90;99.90
5346;DHT22;2695;49.444;11.054;2022-10-10T07:21:12;14.90;99.90
5346;DHT22;2695;49.444;11.054;2022-10-10T07:23:41;14.80;99.90
5346;DHT22;2695;49.444;11.054;2022-10-10T07:26:14;14.60;99.90
5346;DHT22;2695;49.444;11.054;2022-10-10T07:28:46;14.40;99.90
5346;DHT22;2695;49.444;11.054;2022-10-10T07:31:15;14.20;99.90
5346;DHT22;2695;49.444;11.054;2022-10-10T07:33:44;14.10;99.90
5346;DHT22;2695;49.444;11.054;2022-10-10T07:36:18;14.50;99.90
5346;DHT22;2695;49.444;11.054;2022-10-10T07:38:49;16.00;99.90
5346;DHT22;2695;49.444;11.054;2022-10-10T07:41:18;17.80;99.90
5346;DHT22;2695;49.444;11.054;2022-10-10T07:43:47;18.40;99.90
5346;DHT22;2695;49.444;11.054;2022-10-10T07:46:17;18.10;99.90
5346;DHT22;2695;49.444;11.054;2022-10-10T07:48:45;17.20;99.90
5346;DHT22;2695;49.444;11.054;2022-10-10T07:51:14;16.80;99.90
5346;DHT22;2695;49.444;11.054;2022-10-10T07:53:44;16.60;99.90
5346;DHT22;2695;49.444;11.054;2022-10-10T07:56:12;16.70;99.90
5346;DHT22;2695;49.444;11.054;2022-10-10T07:58:40;17.70;99.90
5346;DHT22;2695;49.444;11.054;2022-10-10T08:01:10;19.00;99.90
5346;DHT22;2695;49.444;11.054;2022-10-10T08:03:38;20.00;99.90
5346;DHT22;2695;49.444;11.054;2022-10-10T08:06:08;20.10;99.70
5346;DHT22;2695;49.444;11.054;2022-10-10T08:08:38;20.40;99.10
5346;DHT22;2695;49.444;11.054;2022-10-10T08:11:18;21.10;97.80
5346;DHT22;2695;49.444;11.054;2022-10-10T08:13:47;20.80;97.20
5346;DHT22;2695;49.444;11.054;2022-10-10T08:16:15;20.20;97.70
5346;DHT22;2695;49.444;11.054;2022-10-10T08:18:43;19.30;99.00
5346;DHT22;2695;49.444;11.054;2022-10-10T08:21:13;19.80;99.30
5346;DHT22;2695;49.444;11.054;2022-10-10T08:23:41;21.00;97.50
5346;DHT22;2695;49.444;11.054;2022-10-10T08:26:11;22.00;95.90
5346;DHT22;2695;49.444;11.054;2022-10-10T08:28:41;22.90;95.00
5346;DHT22;2695;49.444;11.054;2022-10-10T08:31:11;24.10;92.40
5346;DHT22;2695;49.444;11.054;2022-10-10T08:33:39;24.80;90.20
5346;DHT22;2695;49.444;11.054;2022-10-10T08:36:11;25.30;86.70
5346;DHT22;2695;49.444;11.054;2022-10-10T08:38:39;25.70;82.80
5346;DHT22;2695;49.444;11.054;2022-10-10T08:41:09;26.10;80.40
5346;DHT22;2695;49.444;11.054;2022-10-10T08:43:43;26.50;77.80
5346;DHT22;2695;49.444;11.054;2022-10-10T08:46:18;27.10;73.60
5346;DHT22;2695;49.444;11.054;2022-10-10T08:48:49;27.40;70.90
5346;DHT22;2695;49.444;11.054;2022-10-10T08:51:24;27.70;69.40
5346;DHT22;2695;49.444;11.054;2022-10-10T08:53:56;28.10;67.10
5346;DHT22;2695;49.444;11.054;2022-10-10T08:56:29;28.20;64.90
5346;DHT22;2695;49.444;11.054;2022-10-10T08:59:02;27.50;65.10
5346;DHT22;2695;49.444;11.054;2022-10-10T09:01:33;26.10;68.10
5346;DHT22;2695;49.444;11.054;2022-10-10T09:04:22;24.90;71.70
5346;DHT22;2695;49.444;11.054;2022-10-10T09:07:00;24.10;75.30
5346;DHT22;2695;49.444;11.054;2022-10-10T09:09:37;23.70;77.40
5346;DHT22;2695;49.444;11.054;2022-10-10T09:12:19;23.70;77.60
5346;DHT22;2695;49.444;11.054;2022-10-10T09:14:59;23.40;79.10
5346;DHT22;2695;49.444;11.054;2022-10-10T09:17:37;22.80;81.50
5346;DHT22;2695;49.444;11.054;2022-10-10T09:20:17;22.70;83.80
5346;DHT22;2695;49.444;11.054;2022-10-10T09:22:52;23.90;81.80
5346;DHT22;2695;49.444;11.054;2022-10-10T09:25:24;24.10;79.70
5346;DHT22;2695;49.444;11.054;2022-10-10T09:27:59;24.00;80.90
5346;DHT22;2695;49.444;11.054;2022-10-10T09:30:32;24.10;80.00
5346;DHT22;2695;49.444;11.054;2022-10-10T09:33:06;23.70;81.10
5346;DHT22;2695;49.444;11.054;2022-10-10T09:35:38;23.60;82.70
5346;DHT22;2695;49.444;11.054;2022-10-10T09:38:19;24.40;81.70
5346;DHT22;2695;49.444;11.054;2022-10-10T09:40:52;25.30;77.90
5346;DHT22;2695;49.444;11.054;2022-10-10T09:43:22;25.80;76.30
5346;DHT22;2695;49.444;11.054;2022-10-10T09:45:55;26.50;74.30
5346;DHT22;2695;49.444;11.054;2022-10-10T09:48:27;27.00;72.80
5346;DHT22;2695;49.444;11.054;2022-10-10T09:50:56;27.20;70.50
5346;DHT22;2695;49.444;11.054;2022-10-10T09:53:25;26.40;71.50
5346;DHT22;2695;49.444;11.054;2022-10-10T09:55:54;25.40;74.80
5346;DHT22;2695;49.444;11.054;2022-10-10T09:58:27;24.30;77.40
5346;DHT22;2695;49.444;11.054;2022-10-10T10:01:17;23.40;80.60
5346;DHT22;2695;49.444;11.054;2022-10-10T10:04:10;22.90;83.00
5346;DHT22;2695;49.444;11.054;2022-10-10T10:07:04;22.70;84.40
5346;DHT22;2695;49.444;11.054;2022-10-10T10:09:33;22.80;85.70
5346;DHT22;2695;49.444;11.054;2022-10-10T10:12:03;23.60;84.70
5346;DHT22;2695;49.444;11.054;2022-10-10T10:14:36;24.50;81.70
5346;DHT22;2695;49.444;11.054;2022-10-10T10:17:14;25.20;79.80
5346;DHT22;2695;49.444;11.054;2022-10-10T10:19:44;25.80;77.80
5346;DHT22;2695;49.444;11.054;2022-10-10T10:22:23;26.10;76.40
5346;DHT22;2695;49.444;11.054;2022-10-10T10:24:53;26.30;75.90
5346;DHT22;2695;49.444;11.054;2022-10-10T10:27:23;26.40;75.10
5346;DHT22;2695;49.444;11.054;2022-10-10T10:29:52;26.40;74.90
5346;DHT22;2695;49.444;11.054;2022-10-10T10:32:40;26.20;75.30
5346;DHT22;2695;49.444;11.054;2022-10-10T10:35:22;26.00;76.60
5346;DHT22;2695;49.444;11.054;2022-10-10T10:38:02;25.40;77.20
5346;DHT22;2695;49.444;11.054;2022-10-10T10:40:39;25.00;78.60
5346;DHT22;2695;49.444;11.054;2022-10-10T10:46:10;25.00;79.90
5346;DHT22;2695;49.444;11.054;2022-10-10T10:48:46;25.50;78.80
5346;DHT22;2695;49.444;11.054;2022-10-10T10:51:30;25.90;77.90
5346;DHT22;2695;49.444;11.054;2022-10-10T10:54:11;26.10;77.50
5346;DHT22;2695;49.444;11.054;2022-10-10T10:56:49;26.10;76.40
5346;DHT22;2695;49.444;11.054;2022-10-10T10:59:34;25.70;77.00
5346;DHT22;2695;49.444;11.054;2022-10-10T11:02:33;25.10;78.40
5346;DHT22;2695;49.444;11.054;2022-10-10T11:05:35;23.90;81.80
5346;DHT22;2695;49.444;11.054;2022-10-10T11:11:18;22.20;87.80
5346;DHT22;2695;49.444;11.054;2022-10-10T11:13:54;21.80;90.20
5346;DHT22;2695;49.444;11.054;2022-10-10T11:16:29;21.50;90.90
5346;DHT22;2695;49.444;11.054;2022-10-10T11:19:20;21.30;91.90
5346;DHT22;2695;49.444;11.054;2022-10-10T11:21:57;21.40;92.00
5346;DHT22;2695;49.444;11.054;2022-10-10T11:24:39;21.40;92.10
5346;DHT22;2695;49.444;11.054;2022-10-10T11:27:13;21.40;92.40
5346;DHT22;2695;49.444;11.054;2022-10-10T11:29:53;21.40;92.70
5346;DHT22;2695;49.444;11.054;2022-10-10T11:32:26;21.50;93.00
5346;DHT22;2695;49.444;11.054;2022-10-10T11:35:14;21.70;92.80
5346;DHT22;2695;49.444;11.054;2022-10-10T11:37:49;21.60;92.90
5346;DHT22;2695;49.444;11.054;2022-10-10T11:40:35;21.50;93.20
5346;DHT22;2695;49.444;11.054;2022-10-10T11:43:12;21.50;93.60
5346;DHT22;2695;49.444;11.054;2022-10-10T11:45:44;21.50;93.80
5346;DHT22;2695;49.444;11.054;2022-10-10T11:48:25;21.50;94.00
5346;DHT22;2695;49.444;11.054;2022-10-10T11:51:00;21.40;94.10
5346;DHT22;2695;49.444;11.054;2022-10-10T11:53:33;21.40;94.50
5346;DHT22;2695;49.444;11.054;2022-10-10T11:56:11;21.30;94.80
5346;DHT22;2695;49.444;11.054;2022-10-10T11:58:42;21.10;95.10
5346;DHT22;2695;49.444;11.054;2022-10-10T12:01:15;20.90;95.60
5346;DHT22;2695;49.444;11.054;2022-10-10T12:03:44;20.70;96.20
5346;DHT22;2695;49.444;11.054;2022-10-10T12:06:18;20.70;96.60
5346;DHT22;2695;49.444;11.054;2022-10-10T12:08:56;20.80;97.00
5346;DHT22;2695;49.444;11.054;2022-10-10T12:11:30;20.80;97.20
5346;DHT22;2695;49.444;11.054;2022-10-10T12:14:00;20.70;97.30
5346;DHT22;2695;49.444;11.054;2022-10-10T12:16:30;20.50;98.00
5346;DHT22;2695;49.444;11.054;2022-10-10T12:19:04;20.40;98.70
5346;DHT22;2695;49.444;11.054;2022-10-10T12:21:51;20.50;99.00
5346;DHT22;2695;49.444;11.054;2022-10-10T12:24:22;20.70;98.70
5346;DHT22;2695;49.444;11.054;2022-10-10T12:30:22;20.90;98.80
5346;DHT22;2695;49.444;11.054;2022-10-10T12:32:54;21.20;98.10
5346;DHT22;2695;49.444;11.054;2022-10-10T12:35:39;21.30;97.80
5346;DHT22;2695;49.444;11.054;2022-10-10T12:38:15;21.30;98.10
5346;DHT22;2695;49.444;11.054;2022-10-10T12:41:12;21.10;98.50
5346;DHT22;2695;49.444;11.054;2022-10-10T12:43:44;20.80;99.10
5346;DHT22;2695;49.444;11.054;2022-10-10T12:46:24;20.50;99.80
5346;DHT22;2695;49.444;11.054;2022-10-10T12:49:12;20.50;99.90
5346;DHT22;2695;49.444;11.054;2022-10-10T12:51:43;20.40;99.90
5346;DHT22;2695;49.444;11.054;2022-10-10T12:54:22;20.50;99.90
5346;DHT22;2695;49.444;11.054;2022-10-10T12:59:45;20.60;99.90
5346;DHT22;2695;49.444;11.054;2022-10-10T13:02:18;20.60;99.90
5346;DHT22;2695;49.444;11.054;2022-10-10T13:04:50;20.70;99.90
5346;DHT22;2695;49.444;11.054;2022-10-10T13:07:20;20.70;99.90
5346;DHT22;2695;49.444;11.054;2022-10-10T13:09:50;20.70;99.90
5346;DHT22;2695;49.444;11.054;2022-10-10T13:12:25;20.70;99.90
5346;DHT22;2695;49.444;11.054;2022-10-10T13:14:54;20.80;99.90
5346;DHT22;2695;49.444;11.054;2022-10-10T13:17:25;20.80;99.90
5346;DHT22;2695;49.444;11.054;2022-10-10T13:19:55;20.80;99.90
5346;DHT22;2695;49.444;11.054;2022-10-10T13:22:24;20.80;99.90
5346;DHT22;2695;49.444;11.054;2022-10-10T13:24:53;20.90;99.90
5346;DHT22;2695;49.444;11.054;2022-10-10T13:27:25;21.00;99.90
5346;DHT22;2695;49.444;11.054;2022-10-10T13:29:54;21.20;99.90
5346;DHT22;2695;49.444;11.054;2022-10-10T13:32:24;21.20;99.90
5346;DHT22;2695;49.444;11.054;2022-10-10T13:34:55;21.00;99.90
5346;DHT22;2695;49.444;11.054;2022-10-10T13:37:24;20.90;99.90
5346;DHT22;2695;49.444;11.054;2022-10-10T13:39:53;20.90;99.90
5346;DHT22;2695;49.444;11.054;2022-10-10T13:42:29;20.80;99.90
5346;DHT22;2695;49.444;11.054;2022-10-10T13:44:58;20.70;99.90
5346;DHT22;2695;49.444;11.054;2022-10-10T13:47:50;20.60;99.90
5346;DHT22;2695;49.444;11.054;2022-10-10T13:50:25;20.50;99.90
5346;DHT22;2695;49.444;11.054;2022-10-10T13:53:33;20.50;99.90
5346;DHT22;2695;49.444;11.054;2022-10-10T13:56:05;20.50;99.90
5346;DHT22;2695;49.444;11.054;2022-10-10T13:58:41;20.40;99.90
5346;DHT22;2695;49.444;11.054;2022-10-10T14:01:35;20.40;99.90
5346;DHT22;2695;49.444;11.054;2022-10-10T14:04:15;20.50;99.90
5346;DHT22;2695;49.444;11.054;2022-10-10T14:06:54;20.40;99.90
5346;DHT22;2695;49.444;11.054;2022-10-10T14:09:28;20.40;99.90
5346;DHT22;2695;49.444;11.054;2022-10-10T14:11:59;20.40;99.90
5346;DHT22;2695;49.444;11.054;2022-10-10T14:14:34;20.50;99.90
5346;DHT22;2695;49.444;11.054;2022-10-10T14:17:07;20.60;99.90
5346;DHT22;2695;49.444;11.054;2022-10-10T14:19:37;20.60;99.90
5346;DHT22;2695;49.444;11.054;2022-10-10T14:22:05;20.50;99.90
5346;DHT22;2695;49.444;11.054;2022-10-10T14:24:34;20.40;99.90
5346;DHT22;2695;49.444;11.054;2022-10-10T14:27:12;20.30;99.90
5346;DHT22;2695;49.444;11.054;2022-10-10T14:29:42;20.20;99.90
5346;DHT22;2695;49.444;11.054;2022-10-10T14:32:11;20.10;99.90
5346;DHT22;2695;49.444;11.054;2022-10-10T14:34:39;20.00;99.90
5346;DHT22;2695;49.444;11.054;2022-10-10T14:37:13;19.90;99.90
5346;DHT22;2695;49.444;11.054;2022-10-10T14:39:42;19.70;99.90
5346;DHT22;2695;49.444;11.054;2022-10-10T14:42:11;19.60;99.90
5346;DHT22;2695;49.444;11.054;2022-10-10T14:44:39;19.50;99.90
5346;DHT22;2695;49.444;11.054;2022-10-10T14:47:14;19.50;99.90
5346;DHT22;2695;49.444;11.054;2022-10-10T14:49:44;19.40;99.90
5346;DHT22;2695;49.444;11.054;2022-10-10T14:52:13;19.30;99.90
5346;DHT22;2695;49.444;11.054;2022-10-10T14:54:41;19.30;99.90
5346;DHT22;2695;49.444;11.054;2022-10-10T14:57:10;19.30;99.90
5346;DHT22;2695;49.444;11.054;2022-10-10T14:59:39;19.40;99.90
5346;DHT22;2695;49.444;11.054;2022-10-10T15:02:20;19.40;99.90
5346;DHT22;2695;49.444;11.054;2022-10-10T15:04:49;19.30;99.90
5346;DHT22;2695;49.444;11.054;2022-10-10T15:07:17;19.30;99.90
5346;DHT22;2695;49.444;11.054;2022-10-10T15:09:46;19.20;99.90
5346;DHT22;2695;49.444;11.054;2022-10-10T15:12:36;19.20;99.90
5346;DHT22;2695;49.444;11.054;2022-10-10T15:15:06;19.20;99.90
5346;DHT22;2695;49.444;11.054;2022-10-10T15:17:36;19.10;99.90
5346;DHT22;2695;49.444;11.054;2022-10-10T15:20:07;19.10;99.90
5346;DHT22;2695;49.444;11.054;2022-10-10T15:22:36;19.00;99.90
5346;DHT22;2695;49.444;11.054;2022-10-10T15:25:06;19.00;99.90
5346;DHT22;2695;49.444;11.054;2022-10-10T15:27:36;19.00;99.90
5346;DHT22;2695;49.444;11.054;2022-10-10T15:30:06;18.90;99.90
5346;DHT22;2695;49.444;11.054;2022-10-10T15:32:38;18.90;99.90
5346;DHT22;2695;49.444;11.054;2022-10-10T15:35:08;18.90;99.90
5346;DHT22;2695;49.444;11.054;2022-10-10T15:37:39;18.90;99.90
5346;DHT22;2695;49.444;11.054;2022-10-10T15:40:08;18.80;99.90
5346;DHT22;2695;49.444;11.054;2022-10-10T15:42:36;18.80;99.90
5346;DHT22;2695;49.444;11.054;2022-10-10T15:45:05;18.70;99.90
5346;DHT22;2695;49.444;11.054;2022-10-10T15:47:38;18.70;99.90
5346;DHT22;2695;49.444;11.054;2022-10-10T15:50:12;18.60;99.90
5346;DHT22;2695;49.444;11.054;2022-10-10T15:52:40;18.60;99.90
5346;DHT22;2695;49.444;11.054;2022-10-10T15:55:08;18.50;99.90
5346;DHT22;2695;49.444;11.054;2022-10-10T15:57:37;18.50;99.90
5346;DHT22;2695;49.444;11.054;2022-10-10T16:00:07;18.50;99.90
5346;DHT22;2695;49.444;11.054;2022-10-10T16:02:37;18.40;99.90
5346;DHT22;2695;49.444;11.054;2022-10-10T16:05:06;18.40;99.90
5346;DHT22;2695;49.444;11.054;2022-10-10T16:07:35;18.30;99.90
5346;DHT22;2695;49.444;11.054;2022-10-10T16:10:13;18.20;99.90
5346;DHT22;2695;49.444;11.054;2022-10-10T16:12:41;18.20;99.90
5346;DHT22;2695;49.444;11.054;2022-10-10T16:15:10;18.10;99.90
5346;DHT22;2695;49.444;11.054;2022-10-10T16:17:40;18.10;99.90
5346;DHT22;2695;49.444;11.054;2022-10-10T16:20:09;18.00;99.90
5346;DHT22;2695;49.444;11.054;2022-10-10T16:22:37;18.00;99.90
5346;DHT22;2695;49.444;11.054;2022-10-10T16:25:06;17.90;99.90
5346;DHT22;2695;49.444;11.054;2022-10-10T16:27:49;17.90;99.90
5346;DHT22;2695;49.444;11.054;2022-10-10T16:30:18;17.80;99.90
5346;DHT22;2695;49.444;11.054;2022-10-10T16:32:48;17.70;99.90
5346;DHT22;2695;49.444;11.054;2022-10-10T16:35:16;17.70;99.90